Nord Copenhagen — 3FNV7 — position and weather

sailwx.info

Track history (hours):
 
Tides and Currents Weather Stations Pressure Air Temp Water Temp Dewpoint Dewpoint Depression Visibility Wind Speed Wind Dir Waves Ship Positions

Nord Copenhagen

Last reported at 2016-Jul-20 08:31 UTC. Time now 2016-Jul-26 10:18 UTC.
Position S 01°27' W 048°30'.

Length 177 m; draft 6.5 m.

Type: Cargo ship. MMSI: 373334000.

Date/timePositionNaut miles runAvg speedWind from/ knotsBaromVisibWave heightAir tempDewpointWater temp
2016-Jul-20 08:31S 01°27' W 048°30'0 0.0
2016-Jul-20 07:31S 01°27' W 048°30'0 0.0
2016-Jul-20 06:34S 01°27' W 048°30'0 0.0
2016-Jul-20 05:31S 01°27' W 048°30'0 0.0
2016-Jul-20 04:31S 01°27' W 048°30'0 0.0
2016-Jul-20 03:31S 01°27' W 048°30'0 0.0
2016-Jul-20 02:32S 01°27' W 048°30'2 1.9
2016-Jul-20 01:34S 01°27' W 048°32'1110.8
2016-Jul-20 00:33S 01°17' W 048°30'1010.2
2016-Jul-19 23:33S 01°06' W 048°30'7 6.8
2016-Jul-19 22:33S 01°00' W 048°27'11 9.1
2016-Jul-19 21:23S 00°50' W 048°29'27110.1
2016-Jul-18 18:29S 02°10' W 044°11'1112.2
2016-Jul-18 17:33S 02°20' W 044°17'1212.3
2016-Jul-18 16:33S 02°30' W 044°23'5 4.8
2016-Jul-18 15:33S 02°35' W 044°22'0 0.0
2016-Jul-18 14:33S 02°35' W 044°22'0 0.0
2016-Jul-18 13:33S 02°35' W 044°22'0 0.0
2016-Jul-18 12:33S 02°35' W 044°22'0 0.0
2016-Jul-18 11:33S 02°35' W 044°22'0 0.0
2016-Jul-18 10:33S 02°35' W 044°22'0 0.0
2016-Jul-18 09:33S 02°35' W 044°22'0 0.0
2016-Jul-18 08:33S 02°35' W 044°22'0 0.0
2016-Jul-18 07:33S 02°35' W 044°22'0 0.0
2016-Jul-18 06:33S 02°35' W 044°22'0 0.0
2016-Jul-18 05:33S 02°35' W 044°22'0 0.0
2016-Jul-18 04:33S 02°35' W 044°22'0 0.0
2016-Jul-18 03:33S 02°35' W 044°22'0 0.0
2016-Jul-18 02:33S 02°35' W 044°22'0 0.0
2016-Jul-18 01:33S 02°35' W 044°22'0 0.0
2016-Jul-18 00:33S 02°35' W 044°22'0 0.0
2016-Jul-17 23:33S 02°35' W 044°22'0 0.0
2016-Jul-17 22:18S 02°35' W 044°22'0 0.0
2016-Jul-17 21:33S 02°35' W 044°22'0 0.0
2016-Jul-17 20:33S 02°35' W 044°22'0 0.0
2016-Jul-17 19:33S 02°35' W 044°22'0 0.0
2016-Jul-17 18:33S 02°35' W 044°22'0 0.0
2016-Jul-17 17:33S 02°35' W 044°22'0 0.0
2016-Jul-17 16:33S 02°35' W 044°22'0 0.0
2016-Jul-17 15:33S 02°35' W 044°22'0 0.0
2016-Jul-17 14:33S 02°35' W 044°22'0 0.0
2016-Jul-17 13:33S 02°35' W 044°22'0 0.0
2016-Jul-17 12:33S 02°35' W 044°22'0 0.0
2016-Jul-17 11:33S 02°35' W 044°22'0 0.0
2016-Jul-17 10:33S 02°35' W 044°22'0 0.0
2016-Jul-17 09:33S 02°35' W 044°22'0 0.0
2016-Jul-17 08:33S 02°35' W 044°22'0 0.0
2016-Jul-17 07:30S 02°35' W 044°22'0 0.0
2016-Jul-17 06:33S 02°35' W 044°22'0 0.0
2016-Jul-17 04:33S 02°35' W 044°22'0 0.0
2016-Jul-17 03:33S 02°35' W 044°22'0 0.0
2016-Jul-17 02:33S 02°35' W 044°22'0 0.0
2016-Jul-17 01:33S 02°35' W 044°22'0 0.0
2016-Jul-17 00:23S 02°35' W 044°22'0 0.0
2016-Jul-16 23:33S 02°35' W 044°22'0 0.0
2016-Jul-16 22:33S 02°35' W 044°22'0 0.0
2016-Jul-16 21:33S 02°35' W 044°22'0 0.0
2016-Jul-16 20:32S 02°35' W 044°22'0 0.0
2016-Jul-16 19:33S 02°35' W 044°22'0 0.2
2016-Jul-16 18:33S 02°35' W 044°22'7 6.7
2016-Jul-16 17:33S 02°28' W 044°22'6 5.5
2016-Jul-16 16:31S 02°26' W 044°17'0 0.0
2016-Jul-16 15:31S 02°26' W 044°17'0 0.0
2016-Jul-16 14:31S 02°26' W 044°17'0 0.1
2016-Jul-16 13:31S 02°26' W 044°17'0 0.1
2016-Jul-16 12:31S 02°26' W 044°17'0 0.0
2016-Jul-16 11:31S 02°26' W 044°17'1 0.9
2016-Jul-16 10:33S 02°25' W 044°17'7 7.1
2016-Jul-16 09:34S 02°18' W 044°15'1111.1
2016-Jul-16 08:33S 02°09' W 044°09'10 9.7
2016-Jul-16 07:32S 02°00' W 044°04'  
Track history (hours):
 
Tides and Currents Weather Stations Pressure Air Temp Water Temp Dewpoint Dewpoint Depression Visibility Wind Speed Wind Dir Waves Ship Positions

Nord Copenhagen

Last reported at 2016-Jul-20 08:31 UTC. Time now 2016-Jul-26 10:18 UTC.
Position S 01°27' W 048°30'.

Length 177 m; draft 6.5 m.

Type: Cargo ship. MMSI: 373334000.

Date/timePositionNaut miles runAvg speedWind from/ knotsBaromVisibWave heightAir tempDewpointWater temp
2016-Jul-20 08:31S 01°27' W 048°30'0 0.0
2016-Jul-20 07:31S 01°27' W 048°30'0 0.0
2016-Jul-20 06:34S 01°27' W 048°30'0 0.0
2016-Jul-20 05:31S 01°27' W 048°30'0 0.0
2016-Jul-20 04:31S 01°27' W 048°30'0 0.0
2016-Jul-20 03:31S 01°27' W 048°30'0 0.0
2016-Jul-20 02:32S 01°27' W 048°30'2 1.9
2016-Jul-20 01:34S 01°27' W 048°32'1110.8
2016-Jul-20 00:33S 01°17' W 048°30'1010.2
2016-Jul-19 23:33S 01°06' W 048°30'7 6.8
2016-Jul-19 22:33S 01°00' W 048°27'11 9.1
2016-Jul-19 21:23S 00°50' W 048°29'27110.1
2016-Jul-18 18:29S 02°10' W 044°11'1112.2
2016-Jul-18 17:33S 02°20' W 044°17'1212.3
2016-Jul-18 16:33S 02°30' W 044°23'5 4.8
2016-Jul-18 15:33S 02°35' W 044°22'0 0.0
2016-Jul-18 14:33S 02°35' W 044°22'0 0.0
2016-Jul-18 13:33S 02°35' W 044°22'0 0.0
2016-Jul-18 12:33S 02°35' W 044°22'0 0.0
2016-Jul-18 11:33S 02°35' W 044°22'0 0.0
2016-Jul-18 10:33S 02°35' W 044°22'0 0.0
2016-Jul-18 09:33S 02°35' W 044°22'0 0.0
2016-Jul-18 08:33S 02°35' W 044°22'0 0.0
2016-Jul-18 07:33S 02°35' W 044°22'0 0.0
2016-Jul-18 06:33S 02°35' W 044°22'0 0.0
2016-Jul-18 05:33S 02°35' W 044°22'0 0.0
2016-Jul-18 04:33S 02°35' W 044°22'0 0.0
2016-Jul-18 03:33S 02°35' W 044°22'0 0.0
2016-Jul-18 02:33S 02°35' W 044°22'0 0.0
2016-Jul-18 01:33S 02°35' W 044°22'0 0.0
2016-Jul-18 00:33S 02°35' W 044°22'0 0.0
2016-Jul-17 23:33S 02°35' W 044°22'0 0.0
2016-Jul-17 22:18S 02°35' W 044°22'0 0.0
2016-Jul-17 21:33S 02°35' W 044°22'0 0.0
2016-Jul-17 20:33S 02°35' W 044°22'0 0.0
2016-Jul-17 19:33S 02°35' W 044°22'0 0.0
2016-Jul-17 18:33S 02°35' W 044°22'0 0.0
2016-Jul-17 17:33S 02°35' W 044°22'0 0.0
2016-Jul-17 16:33S 02°35' W 044°22'0 0.0
2016-Jul-17 15:33S 02°35' W 044°22'0 0.0
2016-Jul-17 14:33S 02°35' W 044°22'0 0.0
2016-Jul-17 13:33S 02°35' W 044°22'0 0.0
2016-Jul-17 12:33S 02°35' W 044°22'0 0.0
2016-Jul-17 11:33S 02°35' W 044°22'0 0.0
2016-Jul-17 10:33S 02°35' W 044°22'0 0.0
2016-Jul-17 09:33S 02°35' W 044°22'0 0.0
2016-Jul-17 08:33S 02°35' W 044°22'0 0.0
2016-Jul-17 07:30S 02°35' W 044°22'0 0.0
2016-Jul-17 06:33S 02°35' W 044°22'0 0.0
2016-Jul-17 04:33S 02°35' W 044°22'0 0.0
2016-Jul-17 03:33S 02°35' W 044°22'0 0.0
2016-Jul-17 02:33S 02°35' W 044°22'0 0.0
2016-Jul-17 01:33S 02°35' W 044°22'0 0.0
2016-Jul-17 00:23S 02°35' W 044°22'0 0.0
2016-Jul-16 23:33S 02°35' W 044°22'0 0.0
2016-Jul-16 22:33S 02°35' W 044°22'0 0.0
2016-Jul-16 21:33S 02°35' W 044°22'0 0.0
2016-Jul-16 20:32S 02°35' W 044°22'0 0.0
2016-Jul-16 19:33S 02°35' W 044°22'0 0.2
2016-Jul-16 18:33S 02°35' W 044°22'7 6.7
2016-Jul-16 17:33S 02°28' W 044°22'6 5.5
2016-Jul-16 16:31S 02°26' W 044°17'0 0.0
2016-Jul-16 15:31S 02°26' W 044°17'0 0.0
2016-Jul-16 14:31S 02°26' W 044°17'0 0.1
2016-Jul-16 13:31S 02°26' W 044°17'0 0.1
2016-Jul-16 12:31S 02°26' W 044°17'0 0.0
2016-Jul-16 11:31S 02°26' W 044°17'1 0.9
2016-Jul-16 10:33S 02°25' W 044°17'7 7.1
2016-Jul-16 09:34S 02°18' W 044°15'1111.1
2016-Jul-16 08:33S 02°09' W 044°09'10 9.7
2016-Jul-16 07:32S 02°00' W 044°04'  

Dump ship's entire track history